^^
Station Historical Data
Daily Summary for December 8, 2017 Units:  Both    English   Metric
« Previous Day
Next Day »
Daily Weekly Monthly Yearly Custom
  High: Low: Average:
Temperature: 33.4 °F /  0.8 °C 27.7 °F /  -2.4 °C 31.1 °F /  -0.5 °C
Dew Point: 27.0 °F /  -2.8 °C 18.0 °F /  -7.8 °C 20.3 °F /  -6.5 °C
Humidity: 80 % 57 % 64 %
Wind Speed: 5.4 mph /  8.7 km/h - 0.3 mph /  0.5 km/h
Wind Gust: 11.5 mph /  18.5 km/h - -
Wind:- - WSW
Pressure: 30.13 in /  1020.2 hPa 29.99 in /  1015.5 hPa -
Precipitation: 0.00 in /  0 mm    
Historical Graphs
 
 
Tabular Data for December 8, 2017
Time Temperature Dew Point Pressure Wind Wind Speed Wind Gust Humidity Rainfall Rate (Hourly) solar Conditions
00:08 33.4 °F /  0.8 °C 27.0 °F /  -2.8 °C 30.05 in /  1017.5 hPa Calm     77 % 0.00 in /  0 mm 0.0 W/m2 BKN
00:15 32.9 °F /  0.5 °C 26.8 °F /  -2.9 °C 30.06 in /  1017.8 hPa Calm     78 % 0.00 in /  0 mm 0.0 W/m2 BKN
00:19 32.9 °F /  0.5 °C 26.8 °F /  -2.9 °C 30.06 in /  1017.8 hPa Calm     78 % 0.00 in /  0 mm 0.0 W/m2 BKN
00:24 33.1 °F /  0.6 °C 27.0 °F /  -2.8 °C 30.06 in /  1017.8 hPa Calm     78 % 0.00 in /  0 mm 0.0 W/m2 BKN
00:29 33.0 °F /  0.6 °C 26.6 °F /  -3 °C 30.05 in /  1017.5 hPa Calm     77 % 0.00 in /  0 mm 0.0 W/m2 BKN
00:39 32.8 °F /  0.4 °C 26.4 °F /  -3.1 °C 30.06 in /  1017.8 hPa Calm     77 % 0.00 in /  0 mm 0.0 W/m2 BKN
00:49 32.3 °F /  0.2 °C 26.2 °F /  -3.2 °C 30.06 in /  1017.8 hPa Calm     78 % 0.00 in /  0 mm 0.0 W/m2 BKN
00:54 32.1 °F /  0.1 °C 26.0 °F /  -3.3 °C 30.06 in /  1017.8 hPa Calm     78 % 0.00 in /  0 mm 0.0 W/m2 BKN
00:59 32.0 °F /  0 °C 26.2 °F /  -3.2 °C 30.06 in /  1017.8 hPa Calm     79 % 0.00 in /  0 mm 0.0 W/m2 BKN
01:09 32.0 °F /  0 °C 26.2 °F /  -3.2 °C 30.06 in /  1017.8 hPa Calm     79 % 0.00 in /  0 mm 0.0 W/m2 FEW
01:14 32.1 °F /  0.1 °C 26.3 °F /  -3.2 °C 30.05 in /  1017.5 hPa Calm   3.5 mph /  5.6 km/h 79 % 0.00 in /  0 mm 0.0 W/m2 FEW
01:19 32.3 °F /  0.2 °C 26.2 °F /  -3.2 °C 30.06 in /  1017.8 hPa Calm   3.5 mph /  5.6 km/h 78 % 0.00 in /  0 mm 0.0 W/m2 FEW
01:29 32.8 °F /  0.4 °C 26.1 °F /  -3.3 °C 30.07 in /  1018.2 hPa Calm   1.2 mph /  1.9 km/h 76 % 0.00 in /  0 mm 0.0 W/m2 FEW
01:39 32.3 °F /  0.2 °C 25.3 °F /  -3.7 °C 30.07 in /  1018.2 hPa Calm     75 % 0.00 in /  0 mm 0.0 W/m2 FEW
01:54 31.7 °F /  -0.2 °C 25.3 °F /  -3.7 °C 30.07 in /  1018.2 hPa Calm     77 % 0.00 in /  0 mm 0.0 W/m2 FEW
01:59 31.3 °F /  -0.4 °C 25.2 °F /  -3.8 °C 30.08 in /  1018.5 hPa Calm     78 % 0.00 in /  0 mm 0.0 W/m2 FEW
02:14 30.8 °F /  -0.7 °C 25.1 °F /  -3.8 °C 30.07 in /  1018.2 hPa Calm     79 % 0.00 in /  0 mm 0.0 W/m2 FEW
02:19 30.7 °F /  -0.7 °C 25.0 °F /  -3.9 °C 30.07 in /  1018.2 hPa Calm     79 % 0.00 in /  0 mm 0.0 W/m2 FEW
02:25 30.2 °F /  -1 °C 24.8 °F /  -4 °C 30.08 in /  1018.5 hPa Calm     80 % 0.00 in /  0 mm 0.0 W/m2 FEW
02:30 29.9 °F /  -1.2 °C 24.5 °F /  -4.2 °C 30.09 in /  1018.8 hPa Calm     80 % 0.00 in /  0 mm 0.0 W/m2 FEW
02:35 29.6 °F /  -1.3 °C 24.2 °F /  -4.3 °C 30.09 in /  1018.8 hPa Calm     80 % 0.00 in /  0 mm 0.0 W/m2 FEW
02:45 29.6 °F /  -1.3 °C 24.2 °F /  -4.3 °C 30.08 in /  1018.5 hPa Calm     80 % 0.00 in /  0 mm 0.0 W/m2 FEW
02:50 29.9 °F /  -1.2 °C 24.5 °F /  -4.2 °C 30.09 in /  1018.8 hPa Calm     80 % 0.00 in /  0 mm 0.0 W/m2 FEW
02:55 29.8 °F /  -1.2 °C 24.1 °F /  -4.4 °C 30.09 in /  1018.8 hPa Calm     79 % 0.00 in /  0 mm 0.0 W/m2 FEW
03:00 30.0 °F /  -1.1 °C 23.7 °F /  -4.6 °C 30.08 in /  1018.5 hPa WNW 1.0 mph /  1.6 km/h 5.8 mph /  9.3 km/h 77 % 0.00 in /  0 mm 0.0 W/m2 FEW
03:05 30.4 °F /  -0.9 °C 22.8 °F /  -5.1 °C 30.08 in /  1018.5 hPa West 0.5 mph /  0.8 km/h 5.8 mph /  9.3 km/h 73 % 0.00 in /  0 mm 0.0 W/m2 CLR
03:10 30.7 °F /  -0.7 °C 22.1 °F /  -5.5 °C 30.08 in /  1018.5 hPa Calm   4.6 mph /  7.4 km/h 70 % 0.00 in /  0 mm 0.0 W/m2 CLR
03:15 30.9 °F /  -0.6 °C 21.6 °F /  -5.8 °C 30.08 in /  1018.5 hPa West 0.5 mph /  0.8 km/h 6.9 mph /  11.1 km/h 68 % 0.00 in /  0 mm 0.0 W/m2 CLR
03:25 30.9 °F /  -0.6 °C 20.1 °F /  -6.6 °C 30.08 in /  1018.5 hPa Calm   6.0 mph /  9.7 km/h 64 % 0.00 in /  0 mm 0.0 W/m2 CLR
03:30 30.8 °F /  -0.7 °C 20.0 °F /  -6.7 °C 30.09 in /  1018.8 hPa Calm   10.4 mph /  16.7 km/h 64 % 0.00 in /  0 mm 0.0 W/m2 CLR
03:35 30.6 °F /  -0.8 °C 19.5 °F /  -6.9 °C 30.09 in /  1018.8 hPa Calm   3.5 mph /  5.6 km/h 63 % 0.00 in /  0 mm 0.0 W/m2 CLR
03:40 30.2 °F /  -1 °C 19.5 °F /  -6.9 °C 30.09 in /  1018.8 hPa West 0.1 mph /  0.2 km/h 3.5 mph /  5.6 km/h 64 % 0.00 in /  0 mm 0.0 W/m2 CLR
03:45 30.0 °F /  -1.1 °C 19.3 °F /  -7.1 °C 30.09 in /  1018.8 hPa West 0.3 mph /  0.5 km/h 3.5 mph /  5.6 km/h 64 % 0.00 in /  0 mm 0.0 W/m2 CLR
03:50 29.7 °F /  -1.3 °C 19.4 °F /  -7 °C 30.09 in /  1018.8 hPa Calm   1.2 mph /  1.9 km/h 65 % 0.00 in /  0 mm 0.0 W/m2 CLR
03:55 29.7 °F /  -1.3 °C 19.4 °F /  -7 °C 30.09 in /  1018.8 hPa Calm   1.2 mph /  1.9 km/h 65 % 0.00 in /  0 mm 0.0 W/m2 CLR
04:00 29.8 °F /  -1.2 °C 19.1 °F /  -7.2 °C 30.09 in /  1018.8 hPa Calm   3.5 mph /  5.6 km/h 64 % 0.00 in /  0 mm 0.0 W/m2 CLR
04:05 29.7 °F /  -1.3 °C 19.4 °F /  -7 °C 30.09 in /  1018.8 hPa Calm   3.5 mph /  5.6 km/h 65 % 0.00 in /  0 mm 0.0 W/m2 CLR
04:10 29.7 °F /  -1.3 °C 19.4 °F /  -7 °C 30.10 in /  1019.2 hPa Calm     65 % 0.00 in /  0 mm 0.0 W/m2 CLR
04:15 29.7 °F /  -1.3 °C 19.7 °F /  -6.8 °C 30.10 in /  1019.2 hPa Calm     66 % 0.00 in /  0 mm 0.0 W/m2 CLR
04:20 29.4 °F /  -1.4 °C 19.8 °F /  -6.8 °C 30.09 in /  1018.8 hPa Calm     67 % 0.00 in /  0 mm 0.0 W/m2 CLR
04:25 29.2 °F /  -1.6 °C 19.9 °F /  -6.7 °C 30.09 in /  1018.8 hPa Calm     68 % 0.00 in /  0 mm 0.0 W/m2 CLR
04:30 29.0 °F /  -1.7 °C 19.8 °F /  -6.8 °C 30.09 in /  1018.8 hPa Calm     68 % 0.00 in /  0 mm 0.0 W/m2 CLR
04:35 29.0 °F /  -1.7 °C 20.1 °F /  -6.6 °C 30.09 in /  1018.8 hPa Calm     69 % 0.00 in /  0 mm 0.0 W/m2 CLR
04:40 29.0 °F /  -1.7 °C 20.1 °F /  -6.6 °C 30.09 in /  1018.8 hPa Calm     69 % 0.00 in /  0 mm 0.0 W/m2 CLR
04:45 29.0 °F /  -1.7 °C 20.1 °F /  -6.6 °C 30.09 in /  1018.8 hPa Calm     69 % 0.00 in /  0 mm 0.0 W/m2 CLR
04:50 29.3 °F /  -1.5 °C 19.7 °F /  -6.8 °C 30.09 in /  1018.8 hPa Calm     67 % 0.00 in /  0 mm 0.0 W/m2 CLR
05:00 29.3 °F /  -1.5 °C 19.0 °F /  -7.2 °C 30.09 in /  1018.8 hPa WNW 0.6 mph /  1 km/h 3.5 mph /  5.6 km/h 65 % 0.00 in /  0 mm 0.0 W/m2 CLR
05:05 29.4 °F /  -1.4 °C 19.1 °F /  -7.2 °C 30.10 in /  1019.2 hPa Calm   3.5 mph /  5.6 km/h 65 % 0.00 in /  0 mm 0.0 W/m2 CLR
05:10 29.5 °F /  -1.4 °C 18.8 °F /  -7.3 °C 30.10 in /  1019.2 hPa Calm   3.5 mph /  5.6 km/h 64 % 0.00 in /  0 mm 0.0 W/m2 CLR
05:15 29.5 °F /  -1.4 °C 18.4 °F /  -7.6 °C 30.10 in /  1019.2 hPa Calm     63 % 0.00 in /  0 mm 0.0 W/m2 CLR
05:20 29.4 °F /  -1.4 °C 18.3 °F /  -7.6 °C 30.09 in /  1018.8 hPa Calm     63 % 0.00 in /  0 mm 0.0 W/m2 CLR
05:26 29.4 °F /  -1.4 °C 18.3 °F /  -7.6 °C 30.09 in /  1018.8 hPa Calm     63 % 0.00 in /  0 mm 0.0 W/m2 CLR
05:41 29.0 °F /  -1.7 °C 18.3 °F /  -7.6 °C 30.09 in /  1018.8 hPa Calm   2.3 mph /  3.7 km/h 64 % 0.00 in /  0 mm 0.0 W/m2 CLR
05:46 28.8 °F /  -1.8 °C 18.5 °F /  -7.5 °C 30.09 in /  1018.8 hPa Calm     65 % 0.00 in /  0 mm 0.0 W/m2 CLR
05:51 28.7 °F /  -1.8 °C 18.4 °F /  -7.6 °C 30.09 in /  1018.8 hPa Calm     65 % 0.00 in /  0 mm 0.0 W/m2 CLR
05:56 28.5 °F /  -1.9 °C 18.6 °F /  -7.4 °C 30.09 in /  1018.8 hPa Calm     66 % 0.00 in /  0 mm 0.0 W/m2 CLR
06:06 28.1 °F /  -2.2 °C 18.5 °F /  -7.5 °C 30.09 in /  1018.8 hPa Calm     67 % 0.00 in /  0 mm 0.0 W/m2 CLR
06:11 28.0 °F /  -2.2 °C 18.5 °F /  -7.5 °C 30.09 in /  1018.8 hPa Calm     67 % 0.00 in /  0 mm 0.0 W/m2 CLR
06:16 27.9 °F /  -2.3 °C 18.7 °F /  -7.4 °C 30.09 in /  1018.8 hPa Calm     68 % 0.00 in /  0 mm 0.0 W/m2 CLR
06:21 27.8 °F /  -2.3 °C 18.6 °F /  -7.4 °C 30.09 in /  1018.8 hPa Calm     68 % 0.00 in /  0 mm 0.0 W/m2 CLR
06:26 27.7 °F /  -2.4 °C 18.5 °F /  -7.5 °C 30.09 in /  1018.8 hPa Calm     68 % 0.00 in /  0 mm 0.0 W/m2 CLR
06:31 27.9 °F /  -2.3 °C 18.7 °F /  -7.4 °C 30.09 in /  1018.8 hPa Calm     68 % 0.00 in /  0 mm 0.0 W/m2 CLR
06:36 28.0 °F /  -2.2 °C 18.8 °F /  -7.3 °C 30.10 in /  1019.2 hPa Calm     68 % 0.00 in /  0 mm 0.0 W/m2 CLR
06:41 28.0 °F /  -2.2 °C 18.8 °F /  -7.3 °C 30.10 in /  1019.2 hPa Calm     68 % 0.00 in /  0 mm 0.0 W/m2 CLR
06:46 27.9 °F /  -2.3 °C 18.7 °F /  -7.4 °C 30.10 in /  1019.2 hPa Calm     68 % 0.00 in /  0 mm 0.0 W/m2 CLR
06:51 28.1 °F /  -2.2 °C 18.5 °F /  -7.5 °C 30.10 in /  1019.2 hPa Calm     67 % 0.00 in /  0 mm 0.0 W/m2 CLR
06:56 28.0 °F /  -2.2 °C 18.5 °F /  -7.5 °C 30.10 in /  1019.2 hPa Calm     67 % 0.00 in /  0 mm 0.0 W/m2 CLR
07:01 27.8 °F /  -2.3 °C 18.6 °F /  -7.4 °C 30.10 in /  1019.2 hPa Calm     68 % 0.00 in /  0 mm 0.0 W/m2 CLR
07:06 27.8 °F /  -2.3 °C 18.6 °F /  -7.4 °C 30.10 in /  1019.2 hPa Calm     68 % 0.00 in /  0 mm 0.0 W/m2 CLR
07:16 27.8 °F /  -2.3 °C 18.9 °F /  -7.3 °C 30.11 in /  1019.5 hPa Calm     69 % 0.00 in /  0 mm 0.0 W/m2 CLR
07:21 27.9 °F /  -2.3 °C 19.0 °F /  -7.2 °C 30.10 in /  1019.2 hPa Calm     69 % 0.00 in /  0 mm 0.0 W/m2 CLR
07:26 28.0 °F /  -2.2 °C 19.1 °F /  -7.2 °C 30.10 in /  1019.2 hPa Calm     69 % 0.00 in /  0 mm 0.0 W/m2 CLR
07:31 28.0 °F /  -2.2 °C 19.1 °F /  -7.2 °C 30.10 in /  1019.2 hPa Calm     69 % 0.00 in /  0 mm 5.0 W/m2 CLR
07:36 28.2 °F /  -2.1 °C 19.0 °F /  -7.2 °C 30.09 in /  1018.8 hPa Calm   8.1 mph /  13 km/h 68 % 0.00 in /  0 mm 11.0 W/m2 CLR
07:41 28.7 °F /  -1.8 °C 18.8 °F /  -7.3 °C 30.09 in /  1018.8 hPa Calm   8.1 mph /  13 km/h 66 % 0.00 in /  0 mm 18.0 W/m2 CLR
07:46 28.9 °F /  -1.7 °C 18.6 °F /  -7.4 °C 30.10 in /  1019.2 hPa West 5.4 mph /  8.7 km/h 9.2 mph /  14.8 km/h 65 % 0.00 in /  0 mm 25.0 W/m2 CLR
07:51 29.1 °F /  -1.6 °C 18.4 °F /  -7.6 °C 30.11 in /  1019.5 hPa WNW 0.1 mph /  0.2 km/h 9.2 mph /  14.8 km/h 64 % 0.00 in /  0 mm 37.0 W/m2 CLR
07:56 29.2 °F /  -1.6 °C 18.5 °F /  -7.5 °C 30.11 in /  1019.5 hPa Calm   9.2 mph /  14.8 km/h 64 % 0.00 in /  0 mm 42.0 W/m2 CLR
08:01 29.3 °F /  -1.5 °C 18.3 °F /  -7.6 °C 30.11 in /  1019.5 hPa Calm   6.9 mph /  11.1 km/h 63 % 0.00 in /  0 mm 58.0 W/m2 CLR
08:06 29.5 °F /  -1.4 °C 18.4 °F /  -7.6 °C 30.12 in /  1019.9 hPa Calm   8.1 mph /  13 km/h 63 % 0.00 in /  0 mm 35.0 W/m2 CLR
08:11 29.6 °F /  -1.3 °C 18.5 °F /  -7.5 °C 30.11 in /  1019.5 hPa Calm   8.1 mph /  13 km/h 63 % 0.00 in /  0 mm 54.0 W/m2 CLR
08:17 29.6 °F /  -1.3 °C 18.2 °F /  -7.7 °C 30.11 in /  1019.5 hPa WNW 0.6 mph /  1 km/h 3.5 mph /  5.6 km/h 62 % 0.00 in /  0 mm 53.0 W/m2 CLR
08:22 29.6 °F /  -1.3 °C 18.2 °F /  -7.7 °C 30.12 in /  1019.9 hPa Calm   3.5 mph /  5.6 km/h 62 % 0.00 in /  0 mm 32.0 W/m2 CLR
08:27 29.6 °F /  -1.3 °C 18.2 °F /  -7.7 °C 30.11 in /  1019.5 hPa WNW 0.2 mph /  0.3 km/h 6.9 mph /  11.1 km/h 62 % 0.00 in /  0 mm 44.0 W/m2 CLR
08:32 29.7 °F /  -1.3 °C 18.3 °F /  -7.6 °C 30.12 in /  1019.9 hPa Calm   6.9 mph /  11.1 km/h 62 % 0.00 in /  0 mm 56.0 W/m2 CLR
08:37 29.7 °F /  -1.3 °C 18.3 °F /  -7.6 °C 30.12 in /  1019.9 hPa WNW 1.1 mph /  1.8 km/h 6.9 mph /  11.1 km/h 62 % 0.00 in /  0 mm 63.0 W/m2 CLR
08:47 29.8 °F /  -1.2 °C 18.4 °F /  -7.6 °C 30.12 in /  1019.9 hPa Calm   8.1 mph /  13 km/h 62 % 0.00 in /  0 mm 65.0 W/m2 CLR
08:52 29.9 °F /  -1.2 °C 18.5 °F /  -7.5 °C 30.11 in /  1019.5 hPa Calm   1.2 mph /  1.9 km/h 62 % 0.00 in /  0 mm 77.0 W/m2 CLR
08:57 29.8 °F /  -1.2 °C 18.4 °F /  -7.6 °C 30.10 in /  1019.2 hPa Calm   1.2 mph /  1.9 km/h 62 % 0.00 in /  0 mm 67.0 W/m2 CLR
09:02 29.8 °F /  -1.2 °C 18.0 °F /  -7.8 °C 30.12 in /  1019.9 hPa Calm     61 % 0.00 in /  0 mm 58.0 W/m2 CLR
09:07 29.9 °F /  -1.2 °C 18.1 °F /  -7.7 °C 30.12 in /  1019.9 hPa Calm   1.2 mph /  1.9 km/h 61 % 0.00 in /  0 mm 77.0 W/m2 CLR
09:12 30.0 °F /  -1.1 °C 18.5 °F /  -7.5 °C 30.12 in /  1019.9 hPa Calm   1.2 mph /  1.9 km/h 62 % 0.00 in /  0 mm 116.0 W/m2 CLR
09:17 30.1 °F /  -1.1 °C 18.6 °F /  -7.4 °C 30.12 in /  1019.9 hPa WNW 0.1 mph /  0.2 km/h 1.2 mph /  1.9 km/h 62 % 0.00 in /  0 mm 90.0 W/m2 CLR
09:22 30.4 °F /  -0.9 °C 18.9 °F /  -7.3 °C 30.12 in /  1019.9 hPa NW 0.6 mph /  1 km/h 3.5 mph /  5.6 km/h 62 % 0.00 in /  0 mm 83.0 W/m2 CLR
09:28 30.2 °F /  -1 °C 18.7 °F /  -7.4 °C 30.13 in /  1020.2 hPa Calm   3.5 mph /  5.6 km/h 62 % 0.00 in /  0 mm 142.0 W/m2 CLR
09:33 30.4 °F /  -0.9 °C 18.9 °F /  -7.3 °C 30.12 in /  1019.9 hPa NW 0.4 mph /  0.6 km/h 3.5 mph /  5.6 km/h 62 % 0.00 in /  0 mm 174.0 W/m2 CLR
09:38 30.9 °F /  -0.6 °C 19.0 °F /  -7.2 °C 30.12 in /  1019.9 hPa NW 0.8 mph /  1.3 km/h 8.1 mph /  13 km/h 61 % 0.00 in /  0 mm 195.0 W/m2 CLR
09:48 30.9 °F /  -0.6 °C 18.6 °F /  -7.4 °C 30.13 in /  1020.2 hPa Calm   8.1 mph /  13 km/h 60 % 0.00 in /  0 mm 192.0 W/m2 CLR
09:53 31.0 °F /  -0.6 °C 18.7 °F /  -7.4 °C 30.13 in /  1020.2 hPa Calm   3.5 mph /  5.6 km/h 60 % 0.00 in /  0 mm 192.0 W/m2 CLR
09:58 31.2 °F /  -0.4 °C 18.9 °F /  -7.3 °C 30.13 in /  1020.2 hPa Calm   8.1 mph /  13 km/h 60 % 0.00 in /  0 mm 160.0 W/m2 CLR
10:03 31.3 °F /  -0.4 °C 18.6 °F /  -7.4 °C 30.13 in /  1020.2 hPa West 1.1 mph /  1.8 km/h 8.1 mph /  13 km/h 59 % 0.00 in /  0 mm 134.0 W/m2 CLR
10:08 31.3 °F /  -0.4 °C 18.6 °F /  -7.4 °C 30.12 in /  1019.9 hPa Calm   8.1 mph /  13 km/h 59 % 0.00 in /  0 mm 114.0 W/m2 CLR
10:13 31.2 °F /  -0.4 °C 18.5 °F /  -7.5 °C 30.13 in /  1020.2 hPa Calm   5.8 mph /  9.3 km/h 59 % 0.00 in /  0 mm 107.0 W/m2 CLR
10:18 31.0 °F /  -0.6 °C 18.3 °F /  -7.6 °C 30.13 in /  1020.2 hPa SW 1.2 mph /  1.9 km/h 5.8 mph /  9.3 km/h 59 % 0.00 in /  0 mm 98.0 W/m2 CLR
10:29 30.9 °F /  -0.6 °C 18.6 °F /  -7.4 °C 30.13 in /  1020.2 hPa WSW 3.0 mph /  4.8 km/h 8.1 mph /  13 km/h 60 % 0.00 in /  0 mm 107.0 W/m2 CLR
10:34 31.0 °F /  -0.6 °C 18.7 °F /  -7.4 °C 30.13 in /  1020.2 hPa SW 2.0 mph /  3.2 km/h 8.1 mph /  13 km/h 60 % 0.00 in /  0 mm 107.0 W/m2 CLR
10:39 31.1 °F /  -0.5 °C 18.8 °F /  -7.3 °C 30.13 in /  1020.2 hPa Calm   8.1 mph /  13 km/h 60 % 0.00 in /  0 mm 116.0 W/m2 CLR
10:44 31.1 °F /  -0.5 °C 19.2 °F /  -7.1 °C 30.11 in /  1019.5 hPa SW 0.8 mph /  1.3 km/h 4.6 mph /  7.4 km/h 61 % 0.00 in /  0 mm 141.0 W/m2 CLR
10:49 31.0 °F /  -0.6 °C 19.1 °F /  -7.2 °C 30.11 in /  1019.5 hPa Calm   3.5 mph /  5.6 km/h 61 % 0.00 in /  0 mm 169.0 W/m2 CLR
10:54 31.1 °F /  -0.5 °C 19.6 °F /  -6.9 °C 30.11 in /  1019.5 hPa Calm   3.5 mph /  5.6 km/h 62 % 0.00 in /  0 mm 176.0 W/m2 CLR
10:59 31.1 °F /  -0.5 °C 19.2 °F /  -7.1 °C 30.11 in /  1019.5 hPa SW 0.3 mph /  0.5 km/h 4.6 mph /  7.4 km/h 61 % 0.00 in /  0 mm 216.0 W/m2 CLR
11:04 31.4 °F /  -0.3 °C 19.5 °F /  -6.9 °C 30.10 in /  1019.2 hPa SSW 0.3 mph /  0.5 km/h 4.6 mph /  7.4 km/h 61 % 0.00 in /  0 mm 316.0 W/m2 CLR
11:19 31.6 °F /  -0.2 °C 19.3 °F /  -7.1 °C 30.10 in /  1019.2 hPa Calm   6.9 mph /  11.1 km/h 60 % 0.00 in /  0 mm 288.0 W/m2 CLR
11:24 31.8 °F /  -0.1 °C 19.5 °F /  -6.9 °C 30.10 in /  1019.2 hPa Calm   6.9 mph /  11.1 km/h 60 % 0.00 in /  0 mm 304.0 W/m2 CLR
11:34 32.5 °F /  0.3 °C 20.1 °F /  -6.6 °C 30.11 in /  1019.5 hPa West 0.3 mph /  0.5 km/h 4.6 mph /  7.4 km/h 60 % 0.00 in /  0 mm 257.0 W/m2 CLR
11:39 32.6 °F /  0.3 °C 20.2 °F /  -6.6 °C 30.10 in /  1019.2 hPa Calm   6.9 mph /  11.1 km/h 60 % 0.00 in /  0 mm 223.0 W/m2 CLR
11:44 32.4 °F /  0.2 °C 19.7 °F /  -6.8 °C 30.10 in /  1019.2 hPa WSW 3.2 mph /  5.1 km/h 8.1 mph /  13 km/h 59 % 0.00 in /  0 mm 285.0 W/m2 CLR
11:49 32.3 °F /  0.2 °C 19.6 °F /  -6.9 °C 30.11 in /  1019.5 hPa WSW 0.7 mph /  1.1 km/h 8.1 mph /  13 km/h 59 % 0.00 in /  0 mm 202.0 W/m2 CLR
11:54 32.5 °F /  0.3 °C 19.7 °F /  -6.8 °C 30.10 in /  1019.2 hPa West 0.2 mph /  0.3 km/h 8.1 mph /  13 km/h 59 % 0.00 in /  0 mm 213.0 W/m2 CLR
11:59 32.4 °F /  0.2 °C 19.7 °F /  -6.8 °C 30.09 in /  1018.8 hPa SW 1.1 mph /  1.8 km/h 4.6 mph /  7.4 km/h 59 % 0.00 in /  0 mm 185.0 W/m2 CLR
12:14 32.4 °F /  0.2 °C 19.7 °F /  -6.8 °C 30.08 in /  1018.5 hPa WSW 4.0 mph /  6.4 km/h 8.1 mph /  13 km/h 59 % 0.00 in /  0 mm 195.0 W/m2 CLR
12:19 32.2 °F /  0.1 °C 19.5 °F /  -6.9 °C 30.09 in /  1018.8 hPa SW 1.9 mph /  3.1 km/h 8.1 mph /  13 km/h 59 % 0.00 in /  0 mm 221.0 W/m2 CLR
12:24 32.2 °F /  0.1 °C 19.5 °F /  -6.9 °C 30.09 in /  1018.8 hPa WSW 2.3 mph /  3.7 km/h 8.1 mph /  13 km/h 59 % 0.00 in /  0 mm 192.0 W/m2 CLR
12:29 32.3 °F /  0.2 °C 19.6 °F /  -6.9 °C 30.09 in /  1018.8 hPa WSW 0.5 mph /  0.8 km/h 10.4 mph /  16.7 km/h 59 % 0.00 in /  0 mm 179.0 W/m2 CLR
12:39 32.6 °F /  0.3 °C 19.8 °F /  -6.8 °C 30.09 in /  1018.8 hPa WSW 1.4 mph /  2.3 km/h 9.2 mph /  14.8 km/h 59 % 0.00 in /  0 mm 155.0 W/m2 CLR
12:44 32.5 °F /  0.3 °C 19.3 °F /  -7.1 °C 30.09 in /  1018.8 hPa SW 5.4 mph /  8.7 km/h 11.5 mph /  18.5 km/h 58 % 0.00 in /  0 mm 158.0 W/m2 CLR
12:49 32.3 °F /  0.2 °C 19.6 °F /  -6.9 °C 30.08 in /  1018.5 hPa SW 0.6 mph /  1 km/h 11.5 mph /  18.5 km/h 59 % 0.00 in /  0 mm 179.0 W/m2 CLR
12:54 32.4 °F /  0.2 °C 19.7 °F /  -6.8 °C 30.08 in /  1018.5 hPa WSW 3.5 mph /  5.6 km/h 9.2 mph /  14.8 km/h 59 % 0.00 in /  0 mm 160.0 W/m2 CLR
12:59 32.5 °F /  0.3 °C 19.7 °F /  -6.8 °C 30.08 in /  1018.5 hPa WSW 0.2 mph /  0.3 km/h 6.9 mph /  11.1 km/h 59 % 0.00 in /  0 mm 160.0 W/m2 CLR
13:09 32.7 °F /  0.4 °C 19.5 °F /  -6.9 °C 30.08 in /  1018.5 hPa WSW 0.1 mph /  0.2 km/h 4.6 mph /  7.4 km/h 58 % 0.00 in /  0 mm 135.0 W/m2 CLR
13:19 32.6 °F /  0.3 °C 19.4 °F /  -7 °C 30.07 in /  1018.2 hPa WSW 1.3 mph /  2.1 km/h 9.2 mph /  14.8 km/h 58 % 0.00 in /  0 mm 135.0 W/m2 CLR
13:24 32.7 °F /  0.4 °C 19.9 °F /  -6.7 °C 30.07 in /  1018.2 hPa Calm   9.2 mph /  14.8 km/h 59 % 0.00 in /  0 mm 123.0 W/m2 CLR
13:29 32.8 °F /  0.4 °C 20.0 °F /  -6.7 °C 30.07 in /  1018.2 hPa Calm   6.9 mph /  11.1 km/h 59 % 0.00 in /  0 mm 135.0 W/m2 CLR
13:34 32.8 °F /  0.4 °C 20.0 °F /  -6.7 °C 30.07 in /  1018.2 hPa WSW 2.7 mph /  4.3 km/h 6.9 mph /  11.1 km/h 59 % 0.00 in /  0 mm 135.0 W/m2 CLR
13:40 32.7 °F /  0.4 °C 19.9 °F /  -6.7 °C 30.06 in /  1017.8 hPa Calm   8.1 mph /  13 km/h 59 % 0.00 in /  0 mm 127.0 W/m2 CLR
13:45 32.8 °F /  0.4 °C 20.0 °F /  -6.7 °C 30.06 in /  1017.8 hPa WSW 0.7 mph /  1.1 km/h 8.1 mph /  13 km/h 59 % 0.00 in /  0 mm 127.0 W/m2 CLR
13:50 32.7 °F /  0.4 °C 19.6 °F /  -6.9 °C 30.05 in /  1017.5 hPa Calm   8.0 mph /  12.9 km/h 58 % 0.00 in /  0 mm 123.0 W/m2 CLR
13:55 32.7 °F /  0.4 °C 19.9 °F /  -6.7 °C 30.05 in /  1017.5 hPa SW 1.0 mph /  1.6 km/h 4.0 mph /  6.4 km/h 59 % 0.00 in /  0 mm 120.0 W/m2 CLR
14:00 32.6 °F /  0.3 °C 19.4 °F /  -7 °C 30.05 in /  1017.5 hPa SSW 0.1 mph /  0.2 km/h 4.6 mph /  7.4 km/h 58 % 0.00 in /  0 mm 116.0 W/m2 CLR
14:05 32.7 °F /  0.4 °C 19.9 °F /  -6.7 °C 30.05 in /  1017.5 hPa SW 5.0 mph /  8 km/h 8.0 mph /  12.9 km/h 59 % 0.00 in /  0 mm 97.0 W/m2 CLR
14:10 32.7 °F /  0.4 °C 19.9 °F /  -6.7 °C 30.05 in /  1017.5 hPa SW 0.3 mph /  0.5 km/h 8.1 mph /  13 km/h 59 % 0.00 in /  0 mm 91.0 W/m2 CLR
14:15 32.8 °F /  0.4 °C 20.0 °F /  -6.7 °C 30.06 in /  1017.8 hPa WSW 0.5 mph /  0.8 km/h 8.1 mph /  13 km/h 59 % 0.00 in /  0 mm 95.0 W/m2 CLR
14:20 32.8 °F /  0.4 °C 19.6 °F /  -6.9 °C 30.05 in /  1017.5 hPa SSW 0.4 mph /  0.6 km/h 5.8 mph /  9.3 km/h 58 % 0.00 in /  0 mm 93.0 W/m2 CLR
14:25 32.8 °F /  0.4 °C 19.7 °F /  -6.8 °C 30.05 in /  1017.5 hPa WSW 1.0 mph /  1.6 km/h 9.0 mph /  14.5 km/h 58 % 0.00 in /  0 mm 97.0 W/m2 CLR
14:30 33.0 °F /  0.6 °C 19.8 °F /  -6.8 °C 30.06 in /  1017.8 hPa Calm   9.2 mph /  14.8 km/h 58 % 0.00 in /  0 mm 95.0 W/m2 CLR
14:40 33.2 °F /  0.7 °C 20.0 °F /  -6.7 °C 30.06 in /  1017.8 hPa Calm   4.0 mph /  6.4 km/h 58 % 0.00 in /  0 mm 93.0 W/m2 CLR
14:50 33.1 °F /  0.6 °C 19.5 °F /  -6.9 °C 30.05 in /  1017.5 hPa SSW 0.4 mph /  0.6 km/h 5.8 mph /  9.3 km/h 57 % 0.00 in /  0 mm 67.0 W/m2 CLR
15:00 33.2 °F /  0.7 °C 20.0 °F /  -6.7 °C 30.05 in /  1017.5 hPa Calm   8.1 mph /  13 km/h 58 % 0.00 in /  0 mm 77.0 W/m2 CLR
15:10 33.2 °F /  0.7 °C 19.6 °F /  -6.9 °C 30.06 in /  1017.8 hPa SW 1.3 mph /  2.1 km/h 9.2 mph /  14.8 km/h 57 % 0.00 in /  0 mm 49.0 W/m2 CLR
15:15 33.2 °F /  0.7 °C 20.0 °F /  -6.7 °C 30.06 in /  1017.8 hPa Calm   6.9 mph /  11.1 km/h 58 % 0.00 in /  0 mm 42.0 W/m2 CLR
15:20 33.2 °F /  0.7 °C 20.0 °F /  -6.7 °C 30.06 in /  1017.8 hPa WSW 1.0 mph /  1.6 km/h 6.9 mph /  11.1 km/h 58 % 0.00 in /  0 mm 37.0 W/m2 CLR
15:30 33.2 °F /  0.7 °C 20.0 °F /  -6.7 °C 30.06 in /  1017.8 hPa WSW 0.2 mph /  0.3 km/h 9.2 mph /  14.8 km/h 58 % 0.00 in /  0 mm 26.0 W/m2 CLR
15:35 33.1 °F /  0.6 °C 19.9 °F /  -6.7 °C 30.06 in /  1017.8 hPa West 0.3 mph /  0.5 km/h 9.2 mph /  14.8 km/h 58 % 0.00 in /  0 mm 21.0 W/m2 CLR
15:40 33.1 °F /  0.6 °C 19.9 °F /  -6.7 °C 30.05 in /  1017.5 hPa WSW 0.1 mph /  0.2 km/h 8.1 mph /  13 km/h 58 % 0.00 in /  0 mm 21.0 W/m2 CLR
15:45 33.0 °F /  0.6 °C 19.8 °F /  -6.8 °C 30.05 in /  1017.5 hPa West 0.1 mph /  0.2 km/h 8.1 mph /  13 km/h 58 % 0.00 in /  0 mm 21.0 W/m2 CLR
15:50 33.0 °F /  0.6 °C 19.8 °F /  -6.8 °C 30.05 in /  1017.5 hPa WSW 0.1 mph /  0.2 km/h 2.3 mph /  3.7 km/h 58 % 0.00 in /  0 mm 19.0 W/m2 CLR
15:55 33.0 °F /  0.6 °C 19.8 °F /  -6.8 °C 30.05 in /  1017.5 hPa West 1.1 mph /  1.8 km/h 5.8 mph /  9.3 km/h 58 % 0.00 in /  0 mm 16.0 W/m2 CLR
16:00 33.1 °F /  0.6 °C 20.3 °F /  -6.5 °C 30.05 in /  1017.5 hPa West 0.2 mph /  0.3 km/h 5.8 mph /  9.3 km/h 59 % 0.00 in /  0 mm 12.0 W/m2 CLR
16:05 33.0 °F /  0.6 °C 19.8 °F /  -6.8 °C 30.05 in /  1017.5 hPa Calm   8.1 mph /  13 km/h 58 % 0.00 in /  0 mm 12.0 W/m2 CLR
16:15 32.9 °F /  0.5 °C 19.7 °F /  -6.8 °C 30.05 in /  1017.5 hPa Calm     58 % 0.00 in /  0 mm 5.0 W/m2 CLR
16:20 32.9 °F /  0.5 °C 20.1 °F /  -6.6 °C 30.05 in /  1017.5 hPa Calm     59 % 0.00 in /  0 mm 0.0 W/m2 CLR
16:25 32.8 °F /  0.4 °C 20.0 °F /  -6.7 °C 30.05 in /  1017.5 hPa Calm     59 % 0.00 in /  0 mm 0.0 W/m2 CLR
16:40 32.7 °F /  0.4 °C 19.9 °F /  -6.7 °C 30.05 in /  1017.5 hPa Calm     59 % 0.00 in /  0 mm 0.0 W/m2 CLR
16:46 32.7 °F /  0.4 °C 20.3 °F /  -6.5 °C 30.06 in /  1017.8 hPa Calm     60 % 0.00 in /  0 mm 0.0 W/m2 CLR
16:51 32.7 °F /  0.4 °C 20.3 °F /  -6.5 °C 30.06 in /  1017.8 hPa Calm     60 % 0.00 in /  0 mm 0.0 W/m2 CLR
16:56 32.7 °F /  0.4 °C 20.3 °F /  -6.5 °C 30.06 in /  1017.8 hPa Calm     60 % 0.00 in /  0 mm 0.0 W/m2 CLR
17:01 32.6 °F /  0.3 °C 20.2 °F /  -6.6 °C 30.06 in /  1017.8 hPa Calm     60 % 0.00 in /  0 mm 0.0 W/m2 CLR
17:11 32.5 °F /  0.3 °C 20.1 °F /  -6.6 °C 30.06 in /  1017.8 hPa Calm     60 % 0.00 in /  0 mm 0.0 W/m2 CLR
17:16 32.5 °F /  0.3 °C 20.1 °F /  -6.6 °C 30.06 in /  1017.8 hPa Calm     60 % 0.00 in /  0 mm 0.0 W/m2 CLR
17:21 32.4 °F /  0.2 °C 20.0 °F /  -6.7 °C 30.06 in /  1017.8 hPa Calm     60 % 0.00 in /  0 mm 0.0 W/m2 CLR
17:26 32.4 °F /  0.2 °C 20.4 °F /  -6.4 °C 30.05 in /  1017.5 hPa Calm     61 % 0.00 in /  0 mm 0.0 W/m2 CLR
17:41 32.3 °F /  0.2 °C 19.6 °F /  -6.9 °C 30.03 in /  1016.8 hPa Calm     59 % 0.00 in /  0 mm 0.0 W/m2 CLR
17:46 32.3 °F /  0.2 °C 19.6 °F /  -6.9 °C 30.03 in /  1016.8 hPa Calm     59 % 0.00 in /  0 mm 0.0 W/m2 CLR
17:51 32.3 °F /  0.2 °C 19.6 °F /  -6.9 °C 30.03 in /  1016.8 hPa Calm     59 % 0.00 in /  0 mm 0.0 W/m2 CLR
17:56 32.2 °F /  0.1 °C 19.5 °F /  -6.9 °C 30.03 in /  1016.8 hPa Calm     59 % 0.00 in /  0 mm 0.0 W/m2 CLR
18:01 32.2 °F /  0.1 °C 19.5 °F /  -6.9 °C 30.03 in /  1016.8 hPa Calm     59 % 0.00 in /  0 mm 0.0 W/m2 CLR
18:11 32.2 °F /  0.1 °C 19.5 °F /  -6.9 °C 30.03 in /  1016.8 hPa Calm     59 % 0.00 in /  0 mm 0.0 W/m2 CLR
18:21 32.2 °F /  0.1 °C 19.1 °F /  -7.2 °C 30.03 in /  1016.8 hPa Calm     58 % 0.00 in /  0 mm 0.0 W/m2 CLR
18:26 32.2 °F /  0.1 °C 19.1 °F /  -7.2 °C 30.03 in /  1016.8 hPa Calm     58 % 0.00 in /  0 mm 0.0 W/m2 CLR
18:31 32.1 °F /  0.1 °C 19.4 °F /  -7 °C 30.04 in /  1017.2 hPa Calm     59 % 0.00 in /  0 mm 0.0 W/m2 CLR
18:36 32.2 °F /  0.1 °C 19.9 °F /  -6.7 °C 30.03 in /  1016.8 hPa Calm     60 % 0.00 in /  0 mm 0.0 W/m2 CLR
18:51 32.0 °F /  0 °C 19.7 °F /  -6.8 °C 30.02 in /  1016.5 hPa Calm     60 % 0.00 in /  0 mm 0.0 W/m2 CLR
19:01 32.0 °F /  0 °C 19.7 °F /  -6.8 °C 30.03 in /  1016.8 hPa Calm     60 % 0.00 in /  0 mm 0.0 W/m2 CLR
19:06 32.0 °F /  0 °C 19.7 °F /  -6.8 °C 30.02 in /  1016.5 hPa Calm     60 % 0.00 in /  0 mm 0.0 W/m2 CLR
19:11 31.9 °F /  -0.1 °C 19.6 °F /  -6.9 °C 30.03 in /  1016.8 hPa Calm     60 % 0.00 in /  0 mm 0.0 W/m2 CLR
19:21 32.0 °F /  0 °C 19.7 °F /  -6.8 °C 30.03 in /  1016.8 hPa Calm     60 % 0.00 in /  0 mm 0.0 W/m2 CLR
19:26 31.9 °F /  -0.1 °C 20.0 °F /  -6.7 °C 30.03 in /  1016.8 hPa Calm     61 % 0.00 in /  0 mm 0.0 W/m2 CLR
19:31 31.7 °F /  -0.2 °C 19.8 °F /  -6.8 °C 30.03 in /  1016.8 hPa Calm     61 % 0.00 in /  0 mm 0.0 W/m2 CLR
19:36 31.6 °F /  -0.2 °C 19.7 °F /  -6.8 °C 30.03 in /  1016.8 hPa Calm     61 % 0.00 in /  0 mm 0.0 W/m2 CLR
19:46 31.6 °F /  -0.2 °C 19.7 °F /  -6.8 °C 30.02 in /  1016.5 hPa Calm     61 % 0.00 in /  0 mm 0.0 W/m2 CLR
19:51 31.7 °F /  -0.2 °C 19.4 °F /  -7 °C 30.03 in /  1016.8 hPa Calm     60 % 0.00 in /  0 mm 0.0 W/m2 CLR
19:56 31.8 °F /  -0.1 °C 19.9 °F /  -6.7 °C 30.02 in /  1016.5 hPa Calm     61 % 0.00 in /  0 mm 0.0 W/m2 CLR
20:01 31.7 °F /  -0.2 °C 19.4 °F /  -7 °C 30.02 in /  1016.5 hPa Calm     60 % 0.00 in /  0 mm 0.0 W/m2 CLR
20:11 31.7 °F /  -0.2 °C 19.8 °F /  -6.8 °C 30.02 in /  1016.5 hPa Calm     61 % 0.00 in /  0 mm 0.0 W/m2 CLR
20:16 31.7 °F /  -0.2 °C 19.8 °F /  -6.8 °C 30.02 in /  1016.5 hPa Calm     61 % 0.00 in /  0 mm 0.0 W/m2 CLR
20:21 31.7 °F /  -0.2 °C 19.8 °F /  -6.8 °C 30.01 in /  1016.1 hPa Calm     61 % 0.00 in /  0 mm 0.0 W/m2 CLR
20:26 31.6 °F /  -0.2 °C 20.1 °F /  -6.6 °C 30.01 in /  1016.1 hPa Calm     62 % 0.00 in /  0 mm 0.0 W/m2 CLR
20:31 31.5 °F /  -0.3 °C 20.3 °F /  -6.5 °C 30.00 in /  1015.8 hPa Calm     63 % 0.00 in /  0 mm 0.0 W/m2 CLR
20:36 31.5 °F /  -0.3 °C 20.3 °F /  -6.5 °C 30.00 in /  1015.8 hPa Calm     63 % 0.00 in /  0 mm 0.0 W/m2 CLR
20:41 31.3 °F /  -0.4 °C 20.5 °F /  -6.4 °C 30.00 in /  1015.8 hPa Calm     64 % 0.00 in /  0 mm 0.0 W/m2 CLR
20:51 31.3 °F /  -0.4 °C 20.9 °F /  -6.2 °C 30.01 in /  1016.1 hPa Calm     65 % 0.00 in /  0 mm 0.0 W/m2 CLR
20:56 31.3 °F /  -0.4 °C 20.9 °F /  -6.2 °C 30.01 in /  1016.1 hPa Calm     65 % 0.00 in /  0 mm 0.0 W/m2 CLR
21:06 31.3 °F /  -0.4 °C 20.9 °F /  -6.2 °C 30.02 in /  1016.5 hPa Calm     65 % 0.00 in /  0 mm 0.0 W/m2 CLR
21:07 31.3 °F /  -0.4 °C 20.9 °F /  -6.2 °C 30.02 in /  1016.5 hPa Calm     65 % 0.00 in /  0 mm 0.0 W/m2 CLR
21:17 31.3 °F /  -0.4 °C 20.9 °F /  -6.2 °C 30.02 in /  1016.5 hPa Calm     65 % 0.00 in /  0 mm 0.0 W/m2 CLR
21:32 31.1 °F /  -0.5 °C 20.3 °F /  -6.5 °C 30.01 in /  1016.1 hPa Calm     64 % 0.00 in /  0 mm 0.0 W/m2 CLR
21:37 31.3 °F /  -0.4 °C 20.5 °F /  -6.4 °C 30.01 in /  1016.1 hPa Calm     64 % 0.00 in /  0 mm 0.0 W/m2 CLR
21:42 31.3 °F /  -0.4 °C 20.9 °F /  -6.2 °C 30.01 in /  1016.1 hPa Calm     65 % 0.00 in /  0 mm 0.0 W/m2 CLR
21:47 31.4 °F /  -0.3 °C 21.0 °F /  -6.1 °C 30.01 in /  1016.1 hPa Calm     65 % 0.00 in /  0 mm 0.0 W/m2 CLR
21:52 31.3 °F /  -0.4 °C 20.9 °F /  -6.2 °C 30.02 in /  1016.5 hPa Calm     65 % 0.00 in /  0 mm 0.0 W/m2 CLR
21:57 31.3 °F /  -0.4 °C 20.9 °F /  -6.2 °C 30.02 in /  1016.5 hPa Calm     65 % 0.00 in /  0 mm 0.0 W/m2 CLR
22:02 31.3 °F /  -0.4 °C 20.9 °F /  -6.2 °C 30.02 in /  1016.5 hPa Calm     65 % 0.00 in /  0 mm 0.0 W/m2 CLR
22:13 31.4 °F /  -0.3 °C 21.0 °F /  -6.1 °C 30.02 in /  1016.5 hPa Calm     65 % 0.00 in /  0 mm 0.0 W/m2 CLR
22:18 31.4 °F /  -0.3 °C 21.0 °F /  -6.1 °C 30.01 in /  1016.1 hPa Calm     65 % 0.00 in /  0 mm 0.0 W/m2 CLR
22:19 31.3 °F /  -0.4 °C 20.9 °F /  -6.2 °C 30.01 in /  1016.1 hPa Calm     65 % 0.00 in /  0 mm 0.0 W/m2 CLR
22:21 31.3 °F /  -0.4 °C 20.9 °F /  -6.2 °C 30.00 in /  1015.8 hPa Calm     65 % 0.00 in /  0 mm 0.0 W/m2 CLR
22:26 31.3 °F /  -0.4 °C 20.9 °F /  -6.2 °C 30.00 in /  1015.8 hPa Calm     65 % 0.00 in /  0 mm 0.0 W/m2 CLR
22:27 31.3 °F /  -0.4 °C 20.9 °F /  -6.2 °C 30.01 in /  1016.1 hPa Calm     65 % 0.00 in /  0 mm 0.0 W/m2 CLR
22:32 31.3 °F /  -0.4 °C 20.9 °F /  -6.2 °C 30.00 in /  1015.8 hPa Calm     65 % 0.00 in /  0 mm 0.0 W/m2 CLR
22:37 31.3 °F /  -0.4 °C 20.9 °F /  -6.2 °C 30.00 in /  1015.8 hPa Calm     65 % 0.00 in /  0 mm 0.0 W/m2 CLR
22:42 31.1 °F /  -0.5 °C 20.3 °F /  -6.5 °C 29.99 in /  1015.5 hPa Calm     64 % 0.00 in /  0 mm 0.0 W/m2 CLR
22:57 31.0 °F /  -0.6 °C 21.0 °F /  -6.1 °C 29.99 in /  1015.5 hPa Calm     66 % 0.00 in /  0 mm 0.0 W/m2 CLR
23:02 31.0 °F /  -0.6 °C 20.6 °F /  -6.3 °C 29.99 in /  1015.5 hPa Calm     65 % 0.00 in /  0 mm 0.0 W/m2 BKN
23:07 30.9 °F /  -0.6 °C 20.9 °F /  -6.2 °C 29.99 in /  1015.5 hPa Calm     66 % 0.00 in /  0 mm 0.0 W/m2 BKN
23:12 31.0 °F /  -0.6 °C 21.0 °F /  -6.1 °C 29.99 in /  1015.5 hPa Calm     66 % 0.00 in /  0 mm 0.0 W/m2 BKN
23:17 30.9 °F /  -0.6 °C 20.9 °F /  -6.2 °C 29.99 in /  1015.5 hPa Calm     66 % 0.00 in /  0 mm 0.0 W/m2 BKN
23:22 31.0 °F /  -0.6 °C 21.0 °F /  -6.1 °C 30.00 in /  1015.8 hPa Calm     66 % 0.00 in /  0 mm 0.0 W/m2 BKN
23:27 31.0 °F /  -0.6 °C 21.3 °F /  -5.9 °C 30.00 in /  1015.8 hPa Calm     67 % 0.00 in /  0 mm 0.0 W/m2 BKN
23:32 31.0 °F /  -0.6 °C 21.3 °F /  -5.9 °C 29.99 in /  1015.5 hPa Calm     67 % 0.00 in /  0 mm 0.0 W/m2 BKN
23:37 31.0 °F /  -0.6 °C 21.0 °F /  -6.1 °C 29.99 in /  1015.5 hPa Calm     66 % 0.00 in /  0 mm 0.0 W/m2 BKN
23:47 31.0 °F /  -0.6 °C 20.6 °F /  -6.3 °C 30.00 in /  1015.8 hPa Calm     65 % 0.00 in /  0 mm 0.0 W/m2 BKN
23:52 31.1 °F /  -0.5 °C 20.7 °F /  -6.3 °C 30.00 in /  1015.8 hPa Calm     65 % 0.00 in /  0 mm 0.0 W/m2 BKN
23:57 31.0 °F /  -0.6 °C 20.6 °F /  -6.3 °C 30.00 in /  1015.8 hPa Calm     65 % 0.00 in /  0 mm 0.0 W/m2 BKN
23:58 31.0 °F /  -0.6 °C 20.6 °F /  -6.3 °C 30.00 in /  1015.8 hPa Calm     65 % 0.00 in /  0 mm 0.0 W/m2 BKN
Air Products Campus Weather
Compliments of Weather Underground - 3 mb